sensor_id;sensor_type;location;lat;lon;timestamp;temperature;humidity
17348;DHT22;8791;50.876;4.342;2023-11-19T00:00:17;13.90;99.90
17348;DHT22;8791;50.876;4.342;2023-11-19T00:02:44;13.90;99.90
17348;DHT22;8791;50.876;4.342;2023-11-19T00:05:11;13.90;99.90
17348;DHT22;8791;50.876;4.342;2023-11-19T00:07:38;13.90;99.90
17348;DHT22;8791;50.876;4.342;2023-11-19T00:10:08;13.90;99.90
17348;DHT22;8791;50.876;4.342;2023-11-19T00:12:37;13.90;99.90
17348;DHT22;8791;50.876;4.342;2023-11-19T00:15:06;13.90;99.90
17348;DHT22;8791;50.876;4.342;2023-11-19T00:17:36;13.90;99.90
17348;DHT22;8791;50.876;4.342;2023-11-19T00:20:05;13.80;99.90
17348;DHT22;8791;50.876;4.342;2023-11-19T00:22:32;13.80;99.90
17348;DHT22;8791;50.876;4.342;2023-11-19T00:24:59;13.90;99.90
17348;DHT22;8791;50.876;4.342;2023-11-19T00:27:26;14.00;99.90
17348;DHT22;8791;50.876;4.342;2023-11-19T00:29:54;13.80;99.90
17348;DHT22;8791;50.876;4.342;2023-11-19T00:32:21;13.80;99.90
17348;DHT22;8791;50.876;4.342;2023-11-19T00:34:48;13.80;99.90
17348;DHT22;8791;50.876;4.342;2023-11-19T00:37:14;13.80;99.90
17348;DHT22;8791;50.876;4.342;2023-11-19T00:39:42;13.80;99.90
17348;DHT22;8791;50.876;4.342;2023-11-19T00:42:09;13.80;99.90
17348;DHT22;8791;50.876;4.342;2023-11-19T00:44:37;13.80;99.90
17348;DHT22;8791;50.876;4.342;2023-11-19T00:47:05;13.70;99.90
17348;DHT22;8791;50.876;4.342;2023-11-19T00:49:32;13.80;99.90
17348;DHT22;8791;50.876;4.342;2023-11-19T00:51:59;13.70;99.90
17348;DHT22;8791;50.876;4.342;2023-11-19T00:54:27;13.80;99.90
17348;DHT22;8791;50.876;4.342;2023-11-19T00:56:54;13.80;99.90
17348;DHT22;8791;50.876;4.342;2023-11-19T00:59:21;13.80;99.90
17348;DHT22;8791;50.876;4.342;2023-11-19T01:01:48;13.80;99.90
17348;DHT22;8791;50.876;4.342;2023-11-19T01:04:18;13.80;99.90
17348;DHT22;8791;50.876;4.342;2023-11-19T01:06:44;13.90;99.90
17348;DHT22;8791;50.876;4.342;2023-11-19T01:09:11;13.90;99.90
17348;DHT22;8791;50.876;4.342;2023-11-19T01:11:38;13.90;99.90
17348;DHT22;8791;50.876;4.342;2023-11-19T01:14:05;14.00;99.90
17348;DHT22;8791;50.876;4.342;2023-11-19T01:16:32;13.90;99.90
17348;DHT22;8791;50.876;4.342;2023-11-19T01:18:58;13.90;99.90
17348;DHT22;8791;50.876;4.342;2023-11-19T01:21:31;14.00;99.90
17348;DHT22;8791;50.876;4.342;2023-11-19T01:23:58;14.00;99.90
17348;DHT22;8791;50.876;4.342;2023-11-19T01:26:25;14.10;99.90
17348;DHT22;8791;50.876;4.342;2023-11-19T01:28:52;14.10;99.90
17348;DHT22;8791;50.876;4.342;2023-11-19T01:31:19;14.20;99.90
17348;DHT22;8791;50.876;4.342;2023-11-19T01:33:46;14.30;99.90
17348;DHT22;8791;50.876;4.342;2023-11-19T01:36:13;14.30;99.90
17348;DHT22;8791;50.876;4.342;2023-11-19T01:38:42;14.30;99.90
17348;DHT22;8791;50.876;4.342;2023-11-19T01:41:09;14.20;99.90
17348;DHT22;8791;50.876;4.342;2023-11-19T01:43:37;14.20;99.90
17348;DHT22;8791;50.876;4.342;2023-11-19T01:46:05;14.20;99.90
17348;DHT22;8791;50.876;4.342;2023-11-19T01:48:36;14.20;99.90
17348;DHT22;8791;50.876;4.342;2023-11-19T01:51:05;14.40;99.90
17348;DHT22;8791;50.876;4.342;2023-11-19T01:53:34;14.20;99.90
17348;DHT22;8791;50.876;4.342;2023-11-19T01:56:03;14.00;99.90
17348;DHT22;8791;50.876;4.342;2023-11-19T01:58:32;13.90;99.90
17348;DHT22;8791;50.876;4.342;2023-11-19T02:00:59;14.00;99.90
17348;DHT22;8791;50.876;4.342;2023-11-19T02:03:30;13.90;99.90
17348;DHT22;8791;50.876;4.342;2023-11-19T02:05:58;13.80;99.90
17348;DHT22;8791;50.876;4.342;2023-11-19T02:08:25;13.60;99.90
17348;DHT22;8791;50.876;4.342;2023-11-19T02:10:52;13.60;99.90
17348;DHT22;8791;50.876;4.342;2023-11-19T02:13:22;13.60;99.90
17348;DHT22;8791;50.876;4.342;2023-11-19T02:15:48;13.50;99.90
17348;DHT22;8791;50.876;4.342;2023-11-19T02:18:20;13.50;99.90
17348;DHT22;8791;50.876;4.342;2023-11-19T02:20:47;13.50;99.90
17348;DHT22;8791;50.876;4.342;2023-11-19T02:23:15;13.60;99.90
17348;DHT22;8791;50.876;4.342;2023-11-19T02:25:43;13.60;99.90
17348;DHT22;8791;50.876;4.342;2023-11-19T02:28:17;13.60;99.90
17348;DHT22;8791;50.876;4.342;2023-11-19T02:30:44;13.70;99.90
17348;DHT22;8791;50.876;4.342;2023-11-19T02:33:11;13.70;99.90
17348;DHT22;8791;50.876;4.342;2023-11-19T02:35:38;13.70;99.90
17348;DHT22;8791;50.876;4.342;2023-11-19T02:38:06;13.70;99.90
17348;DHT22;8791;50.876;4.342;2023-11-19T02:40:33;13.80;99.90
17348;DHT22;8791;50.876;4.342;2023-11-19T02:43:00;13.80;99.90
17348;DHT22;8791;50.876;4.342;2023-11-19T02:45:32;13.70;99.90
17348;DHT22;8791;50.876;4.342;2023-11-19T02:47:58;13.70;99.90
17348;DHT22;8791;50.876;4.342;2023-11-19T02:50:27;13.60;99.90
17348;DHT22;8791;50.876;4.342;2023-11-19T02:52:55;13.50;99.90
17348;DHT22;8791;50.876;4.342;2023-11-19T02:55:23;13.50;99.90
17348;DHT22;8791;50.876;4.342;2023-11-19T02:57:50;13.60;99.90
17348;DHT22;8791;50.876;4.342;2023-11-19T03:00:20;13.60;99.90
17348;DHT22;8791;50.876;4.342;2023-11-19T03:02:58;13.40;99.90
17348;DHT22;8791;50.876;4.342;2023-11-19T03:05:31;13.30;99.90
17348;DHT22;8791;50.876;4.342;2023-11-19T03:07:58;13.20;99.90
17348;DHT22;8791;50.876;4.342;2023-11-19T03:10:25;13.20;99.90
17348;DHT22;8791;50.876;4.342;2023-11-19T03:12:52;13.20;99.90
17348;DHT22;8791;50.876;4.342;2023-11-19T03:15:20;13.10;99.90
17348;DHT22;8791;50.876;4.342;2023-11-19T03:17:47;13.10;99.90
17348;DHT22;8791;50.876;4.342;2023-11-19T03:20:16;13.10;99.90
17348;DHT22;8791;50.876;4.342;2023-11-19T03:22:43;13.20;99.90
17348;DHT22;8791;50.876;4.342;2023-11-19T03:25:10;13.20;99.90
17348;DHT22;8791;50.876;4.342;2023-11-19T03:27:37;13.20;99.90
17348;DHT22;8791;50.876;4.342;2023-11-19T03:30:06;13.30;99.90
17348;DHT22;8791;50.876;4.342;2023-11-19T03:32:35;13.20;99.90
17348;DHT22;8791;50.876;4.342;2023-11-19T03:35:02;13.10;99.90
17348;DHT22;8791;50.876;4.342;2023-11-19T03:37:31;13.10;99.90
17348;DHT22;8791;50.876;4.342;2023-11-19T03:39:59;13.10;99.90
17348;DHT22;8791;50.876;4.342;2023-11-19T03:42:26;13.00;99.90
17348;DHT22;8791;50.876;4.342;2023-11-19T03:44:53;12.90;99.90
17348;DHT22;8791;50.876;4.342;2023-11-19T03:47:20;12.90;99.90
17348;DHT22;8791;50.876;4.342;2023-11-19T03:49:48;12.90;99.90
17348;DHT22;8791;50.876;4.342;2023-11-19T03:52:15;13.00;99.90
17348;DHT22;8791;50.876;4.342;2023-11-19T03:54:44;13.00;99.90
17348;DHT22;8791;50.876;4.342;2023-11-19T03:57:11;13.00;99.90
17348;DHT22;8791;50.876;4.342;2023-11-19T03:59:37;12.90;99.90
17348;DHT22;8791;50.876;4.342;2023-11-19T04:02:04;12.90;99.90
17348;DHT22;8791;50.876;4.342;2023-11-19T04:04:32;12.90;99.90
17348;DHT22;8791;50.876;4.342;2023-11-19T04:06:59;13.00;99.90
17348;DHT22;8791;50.876;4.342;2023-11-19T04:09:26;12.80;99.90
17348;DHT22;8791;50.876;4.342;2023-11-19T04:11:54;12.90;99.90
17348;DHT22;8791;50.876;4.342;2023-11-19T04:14:21;12.90;99.90
17348;DHT22;8791;50.876;4.342;2023-11-19T04:16:48;13.00;99.90
17348;DHT22;8791;50.876;4.342;2023-11-19T04:19:15;13.10;99.90
17348;DHT22;8791;50.876;4.342;2023-11-19T04:21:41;13.00;99.90
17348;DHT22;8791;50.876;4.342;2023-11-19T04:24:09;13.00;99.90
17348;DHT22;8791;50.876;4.342;2023-11-19T04:26:40;13.10;99.90
17348;DHT22;8791;50.876;4.342;2023-11-19T04:29:09;13.00;99.90
17348;DHT22;8791;50.876;4.342;2023-11-19T04:31:36;13.00;99.90
17348;DHT22;8791;50.876;4.342;2023-11-19T04:34:03;13.00;99.90
17348;DHT22;8791;50.876;4.342;2023-11-19T04:36:30;13.10;99.90
17348;DHT22;8791;50.876;4.342;2023-11-19T04:38:58;13.20;99.90
17348;DHT22;8791;50.876;4.342;2023-11-19T04:41:26;13.20;99.90
17348;DHT22;8791;50.876;4.342;2023-11-19T04:43:53;13.20;99.90
17348;DHT22;8791;50.876;4.342;2023-11-19T04:46:22;13.10;99.90
17348;DHT22;8791;50.876;4.342;2023-11-19T04:48:49;13.10;99.90
17348;DHT22;8791;50.876;4.342;2023-11-19T04:51:16;13.20;99.90
17348;DHT22;8791;50.876;4.342;2023-11-19T04:53:43;13.20;99.90
17348;DHT22;8791;50.876;4.342;2023-11-19T04:56:11;13.20;99.90
17348;DHT22;8791;50.876;4.342;2023-11-19T04:58:38;13.10;99.90
17348;DHT22;8791;50.876;4.342;2023-11-19T05:01:05;12.90;99.90
17348;DHT22;8791;50.876;4.342;2023-11-19T05:03:34;13.00;99.90
17348;DHT22;8791;50.876;4.342;2023-11-19T05:06:01;12.90;99.90
17348;DHT22;8791;50.876;4.342;2023-11-19T05:08:28;12.90;99.90
17348;DHT22;8791;50.876;4.342;2023-11-19T05:10:55;12.80;99.90
17348;DHT22;8791;50.876;4.342;2023-11-19T05:13:23;12.80;99.90
17348;DHT22;8791;50.876;4.342;2023-11-19T05:15:50;12.70;99.90
17348;DHT22;8791;50.876;4.342;2023-11-19T05:18:17;12.80;99.90
17348;DHT22;8791;50.876;4.342;2023-11-19T05:20:45;12.60;99.90
17348;DHT22;8791;50.876;4.342;2023-11-19T05:23:14;12.50;99.90
17348;DHT22;8791;50.876;4.342;2023-11-19T05:25:42;12.50;99.90
17348;DHT22;8791;50.876;4.342;2023-11-19T05:28:09;12.50;99.90
17348;DHT22;8791;50.876;4.342;2023-11-19T05:30:35;12.50;99.90
17348;DHT22;8791;50.876;4.342;2023-11-19T05:33:02;12.50;99.90
17348;DHT22;8791;50.876;4.342;2023-11-19T05:35:29;12.50;99.90
17348;DHT22;8791;50.876;4.342;2023-11-19T05:37:57;12.40;99.90
17348;DHT22;8791;50.876;4.342;2023-11-19T05:40:24;12.60;99.90
17348;DHT22;8791;50.876;4.342;2023-11-19T05:42:51;12.60;99.90
17348;DHT22;8791;50.876;4.342;2023-11-19T05:45:18;12.50;99.90
17348;DHT22;8791;50.876;4.342;2023-11-19T05:47:45;12.40;99.90
17348;DHT22;8791;50.876;4.342;2023-11-19T05:50:12;12.60;99.90
17348;DHT22;8791;50.876;4.342;2023-11-19T05:52:39;12.50;99.90
17348;DHT22;8791;50.876;4.342;2023-11-19T05:55:08;12.50;99.90
17348;DHT22;8791;50.876;4.342;2023-11-19T05:57:36;12.50;99.90
17348;DHT22;8791;50.876;4.342;2023-11-19T06:00:03;12.50;99.90
17348;DHT22;8791;50.876;4.342;2023-11-19T06:02:34;12.60;99.90
17348;DHT22;8791;50.876;4.342;2023-11-19T06:05:03;12.60;99.90
17348;DHT22;8791;50.876;4.342;2023-11-19T06:07:31;12.50;99.90
17348;DHT22;8791;50.876;4.342;2023-11-19T06:09:58;12.60;99.90
17348;DHT22;8791;50.876;4.342;2023-11-19T06:12:26;12.50;99.90
17348;DHT22;8791;50.876;4.342;2023-11-19T06:14:55;12.40;99.90
17348;DHT22;8791;50.876;4.342;2023-11-19T06:17:22;12.30;99.90
17348;DHT22;8791;50.876;4.342;2023-11-19T06:19:49;12.20;99.90
17348;DHT22;8791;50.876;4.342;2023-11-19T06:22:16;12.20;99.90
17348;DHT22;8791;50.876;4.342;2023-11-19T06:24:43;12.10;99.90
17348;DHT22;8791;50.876;4.342;2023-11-19T06:27:10;12.00;99.90
17348;DHT22;8791;50.876;4.342;2023-11-19T06:29:38;12.00;99.90
17348;DHT22;8791;50.876;4.342;2023-11-19T06:32:06;12.00;99.90
17348;DHT22;8791;50.876;4.342;2023-11-19T06:34:33;12.10;99.90
17348;DHT22;8791;50.876;4.342;2023-11-19T06:37:00;12.10;99.90
17348;DHT22;8791;50.876;4.342;2023-11-19T06:39:28;12.10;99.90
17348;DHT22;8791;50.876;4.342;2023-11-19T06:41:55;12.00;99.90
17348;DHT22;8791;50.876;4.342;2023-11-19T06:44:22;12.00;99.90
17348;DHT22;8791;50.876;4.342;2023-11-19T06:46:51;11.90;99.90
17348;DHT22;8791;50.876;4.342;2023-11-19T06:49:19;11.90;99.90
17348;DHT22;8791;50.876;4.342;2023-11-19T06:51:46;11.80;99.90
17348;DHT22;8791;50.876;4.342;2023-11-19T06:54:13;11.80;99.90
17348;DHT22;8791;50.876;4.342;2023-11-19T06:56:39;11.70;99.90
17348;DHT22;8791;50.876;4.342;2023-11-19T06:59:07;11.80;99.90
17348;DHT22;8791;50.876;4.342;2023-11-19T07:01:37;11.80;99.90
17348;DHT22;8791;50.876;4.342;2023-11-19T07:04:05;11.80;99.90
17348;DHT22;8791;50.876;4.342;2023-11-19T07:06:35;11.80;99.90
17348;DHT22;8791;50.876;4.342;2023-11-19T07:09:02;11.90;99.90
17348;DHT22;8791;50.876;4.342;2023-11-19T07:11:35;11.90;99.90
17348;DHT22;8791;50.876;4.342;2023-11-19T07:14:02;11.80;99.90
17348;DHT22;8791;50.876;4.342;2023-11-19T07:16:29;11.80;99.90
17348;DHT22;8791;50.876;4.342;2023-11-19T07:18:56;11.70;99.90
17348;DHT22;8791;50.876;4.342;2023-11-19T07:21:25;11.80;99.90
17348;DHT22;8791;50.876;4.342;2023-11-19T07:23:53;11.80;99.90
17348;DHT22;8791;50.876;4.342;2023-11-19T07:26:20;11.80;99.90
17348;DHT22;8791;50.876;4.342;2023-11-19T07:28:48;11.80;99.90
17348;DHT22;8791;50.876;4.342;2023-11-19T07:31:14;11.90;99.90
17348;DHT22;8791;50.876;4.342;2023-11-19T07:33:41;11.80;99.90
17348;DHT22;8791;50.876;4.342;2023-11-19T07:36:09;11.90;99.90
17348;DHT22;8791;50.876;4.342;2023-11-19T07:38:38;11.90;99.90
17348;DHT22;8791;50.876;4.342;2023-11-19T07:41:05;11.90;99.90
17348;DHT22;8791;50.876;4.342;2023-11-19T07:43:34;11.90;99.90
17348;DHT22;8791;50.876;4.342;2023-11-19T07:46:01;11.80;99.90
17348;DHT22;8791;50.876;4.342;2023-11-19T07:48:29;11.80;99.90
17348;DHT22;8791;50.876;4.342;2023-11-19T07:50:56;11.80;99.90
17348;DHT22;8791;50.876;4.342;2023-11-19T07:53:23;11.80;99.90
17348;DHT22;8791;50.876;4.342;2023-11-19T07:55:51;11.80;99.90
17348;DHT22;8791;50.876;4.342;2023-11-19T07:58:18;11.80;99.90
17348;DHT22;8791;50.876;4.342;2023-11-19T08:00:44;11.80;99.90
17348;DHT22;8791;50.876;4.342;2023-11-19T08:03:11;11.90;99.90
17348;DHT22;8791;50.876;4.342;2023-11-19T08:05:38;11.80;99.90
17348;DHT22;8791;50.876;4.342;2023-11-19T08:08:05;11.80;99.90
17348;DHT22;8791;50.876;4.342;2023-11-19T08:10:32;11.80;99.90
17348;DHT22;8791;50.876;4.342;2023-11-19T08:13:01;11.90;99.90
17348;DHT22;8791;50.876;4.342;2023-11-19T08:15:28;12.00;99.90
17348;DHT22;8791;50.876;4.342;2023-11-19T08:17:54;12.10;99.90
17348;DHT22;8791;50.876;4.342;2023-11-19T08:20:21;12.20;99.90
17348;DHT22;8791;50.876;4.342;2023-11-19T08:22:48;12.10;99.90
17348;DHT22;8791;50.876;4.342;2023-11-19T08:25:15;12.20;99.90
17348;DHT22;8791;50.876;4.342;2023-11-19T08:27:42;12.10;99.90
17348;DHT22;8791;50.876;4.342;2023-11-19T08:30:11;12.20;99.90
17348;DHT22;8791;50.876;4.342;2023-11-19T08:32:38;12.10;99.90
17348;DHT22;8791;50.876;4.342;2023-11-19T08:35:06;12.20;99.90
17348;DHT22;8791;50.876;4.342;2023-11-19T08:37:34;12.20;99.90
17348;DHT22;8791;50.876;4.342;2023-11-19T08:40:02;12.10;99.90
17348;DHT22;8791;50.876;4.342;2023-11-19T08:42:30;12.10;99.90
17348;DHT22;8791;50.876;4.342;2023-11-19T08:44:56;12.10;99.90
17348;DHT22;8791;50.876;4.342;2023-11-19T08:47:25;12.10;99.90
17348;DHT22;8791;50.876;4.342;2023-11-19T08:49:52;12.20;99.90
17348;DHT22;8791;50.876;4.342;2023-11-19T08:52:19;12.30;99.90
17348;DHT22;8791;50.876;4.342;2023-11-19T08:54:46;12.40;99.90
17348;DHT22;8791;50.876;4.342;2023-11-19T08:57:13;12.40;99.90
17348;DHT22;8791;50.876;4.342;2023-11-19T08:59:39;12.30;99.90
17348;DHT22;8791;50.876;4.342;2023-11-19T09:02:06;12.20;99.90
17348;DHT22;8791;50.876;4.342;2023-11-19T09:04:35;12.20;99.90
17348;DHT22;8791;50.876;4.342;2023-11-19T09:07:01;12.20;99.90
17348;DHT22;8791;50.876;4.342;2023-11-19T09:09:29;12.30;99.90
17348;DHT22;8791;50.876;4.342;2023-11-19T09:11:56;12.30;99.90
17348;DHT22;8791;50.876;4.342;2023-11-19T09:14:23;12.20;99.90
17348;DHT22;8791;50.876;4.342;2023-11-19T09:16:51;12.20;99.90
17348;DHT22;8791;50.876;4.342;2023-11-19T09:19:18;12.20;99.90
17348;DHT22;8791;50.876;4.342;2023-11-19T09:21:46;12.30;99.90
17348;DHT22;8791;50.876;4.342;2023-11-19T09:24:14;12.30;99.90
17348;DHT22;8791;50.876;4.342;2023-11-19T09:26:41;12.40;99.90
17348;DHT22;8791;50.876;4.342;2023-11-19T09:29:08;12.50;99.90
17348;DHT22;8791;50.876;4.342;2023-11-19T09:31:35;12.40;99.90
17348;DHT22;8791;50.876;4.342;2023-11-19T09:34:01;12.40;99.90
17348;DHT22;8791;50.876;4.342;2023-11-19T09:36:28;12.30;99.90
17348;DHT22;8791;50.876;4.342;2023-11-19T09:38:57;12.40;99.90
17348;DHT22;8791;50.876;4.342;2023-11-19T09:41:25;12.40;99.90
17348;DHT22;8791;50.876;4.342;2023-11-19T09:43:54;12.40;99.90
17348;DHT22;8791;50.876;4.342;2023-11-19T09:46:22;12.50;99.90
17348;DHT22;8791;50.876;4.342;2023-11-19T09:48:53;12.40;99.90
17348;DHT22;8791;50.876;4.342;2023-11-19T09:51:20;12.50;99.90
17348;DHT22;8791;50.876;4.342;2023-11-19T09:53:48;12.60;99.90
17348;DHT22;8791;50.876;4.342;2023-11-19T09:56:16;12.70;99.90
17348;DHT22;8791;50.876;4.342;2023-11-19T09:58:43;12.70;99.90
17348;DHT22;8791;50.876;4.342;2023-11-19T10:01:10;12.80;99.90
17348;DHT22;8791;50.876;4.342;2023-11-19T10:03:38;12.80;99.90
17348;DHT22;8791;50.876;4.342;2023-11-19T10:06:07;12.80;99.90
17348;DHT22;8791;50.876;4.342;2023-11-19T10:08:37;12.90;99.90
17348;DHT22;8791;50.876;4.342;2023-11-19T10:11:05;12.80;99.90
17348;DHT22;8791;50.876;4.342;2023-11-19T10:13:35;12.80;99.90
17348;DHT22;8791;50.876;4.342;2023-11-19T10:16:08;12.90;99.90
17348;DHT22;8791;50.876;4.342;2023-11-19T10:18:37;12.90;99.90
17348;DHT22;8791;50.876;4.342;2023-11-19T10:21:15;13.20;99.90
17348;DHT22;8791;50.876;4.342;2023-11-19T10:23:51;13.40;99.90
17348;DHT22;8791;50.876;4.342;2023-11-19T10:26:19;13.50;99.90
17348;DHT22;8791;50.876;4.342;2023-11-19T10:28:48;13.60;99.90
17348;DHT22;8791;50.876;4.342;2023-11-19T10:31:15;13.50;99.90
17348;DHT22;8791;50.876;4.342;2023-11-19T10:33:45;13.50;99.90
17348;DHT22;8791;50.876;4.342;2023-11-19T10:36:12;13.50;99.90
17348;DHT22;8791;50.876;4.342;2023-11-19T10:38:41;13.50;99.90
17348;DHT22;8791;50.876;4.342;2023-11-19T10:41:26;13.60;99.90
17348;DHT22;8791;50.876;4.342;2023-11-19T10:43:55;13.50;99.90
17348;DHT22;8791;50.876;4.342;2023-11-19T10:46:22;13.60;99.90
17348;DHT22;8791;50.876;4.342;2023-11-19T10:48:49;13.60;99.90
17348;DHT22;8791;50.876;4.342;2023-11-19T10:51:19;13.60;99.90
17348;DHT22;8791;50.876;4.342;2023-11-19T10:53:49;13.30;99.90
17348;DHT22;8791;50.876;4.342;2023-11-19T10:56:21;13.30;99.90
17348;DHT22;8791;50.876;4.342;2023-11-19T10:58:51;13.40;99.90
17348;DHT22;8791;50.876;4.342;2023-11-19T11:01:23;13.40;99.90
17348;DHT22;8791;50.876;4.342;2023-11-19T11:03:51;13.40;99.90
17348;DHT22;8791;50.876;4.342;2023-11-19T11:06:19;13.30;99.90
17348;DHT22;8791;50.876;4.342;2023-11-19T11:08:49;13.30;99.90
17348;DHT22;8791;50.876;4.342;2023-11-19T11:11:18;13.30;99.90
17348;DHT22;8791;50.876;4.342;2023-11-19T11:13:47;13.50;99.90
17348;DHT22;8791;50.876;4.342;2023-11-19T11:16:18;13.30;99.90
17348;DHT22;8791;50.876;4.342;2023-11-19T11:18:51;13.20;99.90
17348;DHT22;8791;50.876;4.342;2023-11-19T11:21:26;13.20;99.90
17348;DHT22;8791;50.876;4.342;2023-11-19T11:24:23;13.00;99.90
17348;DHT22;8791;50.876;4.342;2023-11-19T11:27:08;13.10;99.90
17348;DHT22;8791;50.876;4.342;2023-11-19T11:29:48;13.10;99.90
17348;DHT22;8791;50.876;4.342;2023-11-19T11:32:28;13.20;99.90
17348;DHT22;8791;50.876;4.342;2023-11-19T11:35:10;13.20;99.90
17348;DHT22;8791;50.876;4.342;2023-11-19T11:37:49;13.20;99.90
17348;DHT22;8791;50.876;4.342;2023-11-19T11:40:22;13.20;99.90
17348;DHT22;8791;50.876;4.342;2023-11-19T11:42:54;13.30;99.90
17348;DHT22;8791;50.876;4.342;2023-11-19T11:45:35;13.20;99.90
17348;DHT22;8791;50.876;4.342;2023-11-19T11:48:12;13.20;99.90
17348;DHT22;8791;50.876;4.342;2023-11-19T11:50:54;13.30;99.90
17348;DHT22;8791;50.876;4.342;2023-11-19T11:53:31;13.40;99.90
17348;DHT22;8791;50.876;4.342;2023-11-19T11:56:01;13.50;99.90
17348;DHT22;8791;50.876;4.342;2023-11-19T11:58:35;13.70;99.90
17348;DHT22;8791;50.876;4.342;2023-11-19T12:01:04;13.90;99.90
17348;DHT22;8791;50.876;4.342;2023-11-19T12:03:32;14.00;99.90
17348;DHT22;8791;50.876;4.342;2023-11-19T12:06:03;14.10;99.90
17348;DHT22;8791;50.876;4.342;2023-11-19T12:08:30;14.10;99.90
17348;DHT22;8791;50.876;4.342;2023-11-19T12:10:58;14.20;99.90
17348;DHT22;8791;50.876;4.342;2023-11-19T12:13:46;14.10;99.90
17348;DHT22;8791;50.876;4.342;2023-11-19T12:16:13;13.90;99.90
17348;DHT22;8791;50.876;4.342;2023-11-19T12:18:40;13.60;99.90
17348;DHT22;8791;50.876;4.342;2023-11-19T12:21:09;13.60;99.90
17348;DHT22;8791;50.876;4.342;2023-11-19T12:23:47;13.70;99.90
17348;DHT22;8791;50.876;4.342;2023-11-19T12:26:33;13.70;99.90
17348;DHT22;8791;50.876;4.342;2023-11-19T12:29:01;13.70;99.90
17348;DHT22;8791;50.876;4.342;2023-11-19T12:31:32;13.80;99.90
17348;DHT22;8791;50.876;4.342;2023-11-19T12:34:05;13.70;99.90
17348;DHT22;8791;50.876;4.342;2023-11-19T12:36:34;13.60;99.90
17348;DHT22;8791;50.876;4.342;2023-11-19T12:39:01;13.50;99.90
17348;DHT22;8791;50.876;4.342;2023-11-19T12:41:28;13.60;99.90
17348;DHT22;8791;50.876;4.342;2023-11-19T12:44:09;13.50;99.90
17348;DHT22;8791;50.876;4.342;2023-11-19T12:46:36;13.40;99.90
17348;DHT22;8791;50.876;4.342;2023-11-19T12:49:03;13.40;99.90
17348;DHT22;8791;50.876;4.342;2023-11-19T12:51:31;13.50;99.90
17348;DHT22;8791;50.876;4.342;2023-11-19T12:54:00;13.40;99.90
17348;DHT22;8791;50.876;4.342;2023-11-19T12:56:27;13.40;99.90
17348;DHT22;8791;50.876;4.342;2023-11-19T12:58:55;13.30;99.90
17348;DHT22;8791;50.876;4.342;2023-11-19T13:01:22;13.40;99.90
17348;DHT22;8791;50.876;4.342;2023-11-19T13:03:48;13.30;99.90
17348;DHT22;8791;50.876;4.342;2023-11-19T13:06:16;13.40;99.90
17348;DHT22;8791;50.876;4.342;2023-11-19T13:08:47;13.40;99.90
17348;DHT22;8791;50.876;4.342;2023-11-19T13:11:30;13.50;99.90
17348;DHT22;8791;50.876;4.342;2023-11-19T13:13:58;13.60;99.90
17348;DHT22;8791;50.876;4.342;2023-11-19T13:16:27;13.50;99.90
17348;DHT22;8791;50.876;4.342;2023-11-19T13:18:54;13.50;99.90
17348;DHT22;8791;50.876;4.342;2023-11-19T13:21:22;13.60;99.90
17348;DHT22;8791;50.876;4.342;2023-11-19T13:23:49;13.60;99.90
17348;DHT22;8791;50.876;4.342;2023-11-19T13:26:17;13.70;99.90
17348;DHT22;8791;50.876;4.342;2023-11-19T13:28:44;13.70;99.90
17348;DHT22;8791;50.876;4.342;2023-11-19T13:31:12;13.60;99.90
17348;DHT22;8791;50.876;4.342;2023-11-19T13:33:38;13.40;99.90
17348;DHT22;8791;50.876;4.342;2023-11-19T13:36:06;13.40;99.90
17348;DHT22;8791;50.876;4.342;2023-11-19T13:38:33;13.30;99.90
17348;DHT22;8791;50.876;4.342;2023-11-19T13:41:00;13.30;99.90
17348;DHT22;8791;50.876;4.342;2023-11-19T13:43:29;13.20;99.90
17348;DHT22;8791;50.876;4.342;2023-11-19T13:45:56;13.20;99.90
17348;DHT22;8791;50.876;4.342;2023-11-19T13:48:23;13.30;99.90
17348;DHT22;8791;50.876;4.342;2023-11-19T13:50:52;13.30;99.90
17348;DHT22;8791;50.876;4.342;2023-11-19T13:53:19;13.20;99.90
17348;DHT22;8791;50.876;4.342;2023-11-19T13:55:45;13.30;99.90
17348;DHT22;8791;50.876;4.342;2023-11-19T13:58:13;13.10;99.90
17348;DHT22;8791;50.876;4.342;2023-11-19T14:00:41;13.00;99.90
17348;DHT22;8791;50.876;4.342;2023-11-19T14:03:09;13.00;99.90
17348;DHT22;8791;50.876;4.342;2023-11-19T14:05:36;13.00;99.90
17348;DHT22;8791;50.876;4.342;2023-11-19T14:08:03;13.10;99.90
17348;DHT22;8791;50.876;4.342;2023-11-19T14:10:39;13.20;99.90
17348;DHT22;8791;50.876;4.342;2023-11-19T14:13:06;13.10;99.90
17348;DHT22;8791;50.876;4.342;2023-11-19T14:15:33;13.10;99.90
17348;DHT22;8791;50.876;4.342;2023-11-19T14:18:05;13.10;99.90
17348;DHT22;8791;50.876;4.342;2023-11-19T14:20:32;13.20;99.90
17348;DHT22;8791;50.876;4.342;2023-11-19T14:22:59;13.20;99.90
17348;DHT22;8791;50.876;4.342;2023-11-19T14:25:26;13.10;99.90
17348;DHT22;8791;50.876;4.342;2023-11-19T14:27:54;13.10;99.90
17348;DHT22;8791;50.876;4.342;2023-11-19T14:30:22;13.10;99.90
17348;DHT22;8791;50.876;4.342;2023-11-19T14:32:49;13.10;99.90
17348;DHT22;8791;50.876;4.342;2023-11-19T14:35:18;13.10;99.90
17348;DHT22;8791;50.876;4.342;2023-11-19T14:37:45;13.00;99.90
17348;DHT22;8791;50.876;4.342;2023-11-19T14:40:13;13.00;99.90
17348;DHT22;8791;50.876;4.342;2023-11-19T14:42:40;12.80;99.90
17348;DHT22;8791;50.876;4.342;2023-11-19T14:45:07;12.80;99.90
17348;DHT22;8791;50.876;4.342;2023-11-19T14:47:37;13.00;99.90
17348;DHT22;8791;50.876;4.342;2023-11-19T14:50:05;13.00;99.90
17348;DHT22;8791;50.876;4.342;2023-11-19T14:52:36;13.00;99.90
17348;DHT22;8791;50.876;4.342;2023-11-19T14:55:03;13.00;99.90
17348;DHT22;8791;50.876;4.342;2023-11-19T14:57:40;12.90;99.90
17348;DHT22;8791;50.876;4.342;2023-11-19T15:00:16;12.90;99.90
17348;DHT22;8791;50.876;4.342;2023-11-19T15:02:43;13.00;99.90
17348;DHT22;8791;50.876;4.342;2023-11-19T15:05:10;13.10;99.90
17348;DHT22;8791;50.876;4.342;2023-11-19T15:07:40;13.00;99.90
17348;DHT22;8791;50.876;4.342;2023-11-19T15:10:07;12.90;99.90
17348;DHT22;8791;50.876;4.342;2023-11-19T15:12:36;12.80;99.90
17348;DHT22;8791;50.876;4.342;2023-11-19T15:15:07;12.90;99.90
17348;DHT22;8791;50.876;4.342;2023-11-19T15:17:39;12.90;99.90
17348;DHT22;8791;50.876;4.342;2023-11-19T15:20:10;13.00;99.90
17348;DHT22;8791;50.876;4.342;2023-11-19T15:22:40;13.00;99.90
17348;DHT22;8791;50.876;4.342;2023-11-19T15:25:08;13.00;99.90
17348;DHT22;8791;50.876;4.342;2023-11-19T15:27:36;13.00;99.90
17348;DHT22;8791;50.876;4.342;2023-11-19T15:30:03;13.10;99.90
17348;DHT22;8791;50.876;4.342;2023-11-19T15:32:30;13.10;99.90
17348;DHT22;8791;50.876;4.342;2023-11-19T15:34:57;13.00;99.90
17348;DHT22;8791;50.876;4.342;2023-11-19T15:37:24;13.00;99.90
17348;DHT22;8791;50.876;4.342;2023-11-19T15:39:56;13.00;99.90
17348;DHT22;8791;50.876;4.342;2023-11-19T15:42:24;13.10;99.90
17348;DHT22;8791;50.876;4.342;2023-11-19T15:44:51;13.10;99.90
17348;DHT22;8791;50.876;4.342;2023-11-19T15:47:20;13.10;99.90
17348;DHT22;8791;50.876;4.342;2023-11-19T15:49:49;13.10;99.90
17348;DHT22;8791;50.876;4.342;2023-11-19T15:52:17;13.00;99.90